sensor_id;sensor_type;location;lat;lon;timestamp;P1;durP1;ratioP1;P2;durP2;ratioP2
29500;SDS011;16450;50.288;10.966;2023-03-30T00:02:29;8.47;;;4.73;;
29500;SDS011;16450;50.288;10.966;2023-03-30T00:05:31;10.43;;;5.10;;
29500;SDS011;16450;50.288;10.966;2023-03-30T00:08:36;7.10;;;4.43;;
29500;SDS011;16450;50.288;10.966;2023-03-30T00:11:38;9.30;;;4.63;;
29500;SDS011;16450;50.288;10.966;2023-03-30T00:14:40;9.20;;;4.80;;
29500;SDS011;16450;50.288;10.966;2023-03-30T00:17:43;9.50;;;4.93;;
29500;SDS011;16450;50.288;10.966;2023-03-30T00:20:48;9.17;;;4.73;;
29500;SDS011;16450;50.288;10.966;2023-03-30T00:23:52;8.37;;;5.00;;
29500;SDS011;16450;50.288;10.966;2023-03-30T00:26:54;9.07;;;4.50;;
29500;SDS011;16450;50.288;10.966;2023-03-30T00:29:56;11.13;;;4.63;;
29500;SDS011;16450;50.288;10.966;2023-03-30T00:32:57;7.67;;;4.40;;
29500;SDS011;16450;50.288;10.966;2023-03-30T00:35:59;6.73;;;4.60;;
29500;SDS011;16450;50.288;10.966;2023-03-30T00:39:02;9.67;;;4.93;;
29500;SDS011;16450;50.288;10.966;2023-03-30T00:42:08;7.13;;;5.20;;
29500;SDS011;16450;50.288;10.966;2023-03-30T00:45:21;8.30;;;4.90;;
29500;SDS011;16450;50.288;10.966;2023-03-30T00:48:26;8.07;;;5.00;;
29500;SDS011;16450;50.288;10.966;2023-03-30T00:51:33;13.63;;;5.80;;
29500;SDS011;16450;50.288;10.966;2023-03-30T00:54:38;8.30;;;4.93;;
29500;SDS011;16450;50.288;10.966;2023-03-30T00:57:41;7.20;;;4.50;;
29500;SDS011;16450;50.288;10.966;2023-03-30T01:00:44;8.03;;;5.03;;
29500;SDS011;16450;50.288;10.966;2023-03-30T01:03:48;9.17;;;5.23;;
29500;SDS011;16450;50.288;10.966;2023-03-30T01:06:52;9.00;;;4.93;;
29500;SDS011;16450;50.288;10.966;2023-03-30T01:09:55;9.27;;;4.53;;
29500;SDS011;16450;50.288;10.966;2023-03-30T01:12:57;12.07;;;4.53;;
29500;SDS011;16450;50.288;10.966;2023-03-30T01:16:21;8.43;;;4.80;;
29500;SDS011;16450;50.288;10.966;2023-03-30T01:36:17;9.10;;;4.80;;
29500;SDS011;16450;50.288;10.966;2023-03-30T01:43:16;6.83;;;4.37;;
29500;SDS011;16450;50.288;10.966;2023-03-30T01:46:29;9.17;;;4.77;;
29500;SDS011;16450;50.288;10.966;2023-03-30T01:56:15;7.37;;;4.73;;
29500;SDS011;16450;50.288;10.966;2023-03-30T02:02:59;7.30;;;4.43;;
29500;SDS011;16450;50.288;10.966;2023-03-30T02:06:12;8.57;;;4.60;;
29500;SDS011;16450;50.288;10.966;2023-03-30T02:09:21;6.50;;;4.13;;
29500;SDS011;16450;50.288;10.966;2023-03-30T02:12:27;7.07;;;4.07;;
29500;SDS011;16450;50.288;10.966;2023-03-30T02:15:36;8.53;;;4.40;;
29500;SDS011;16450;50.288;10.966;2023-03-30T02:18:41;8.17;;;4.30;;
29500;SDS011;16450;50.288;10.966;2023-03-30T02:21:43;9.10;;;5.00;;
29500;SDS011;16450;50.288;10.966;2023-03-30T02:24:47;6.57;;;4.50;;
29500;SDS011;16450;50.288;10.966;2023-03-30T02:27:50;6.87;;;4.33;;
29500;SDS011;16450;50.288;10.966;2023-03-30T02:30:53;7.37;;;4.50;;
29500;SDS011;16450;50.288;10.966;2023-03-30T02:34:10;6.77;;;4.37;;
29500;SDS011;16450;50.288;10.966;2023-03-30T02:37:25;5.90;;;4.00;;
29500;SDS011;16450;50.288;10.966;2023-03-30T02:47:19;9.37;;;4.50;;
29500;SDS011;16450;50.288;10.966;2023-03-30T02:50:42;9.00;;;4.37;;
29500;SDS011;16450;50.288;10.966;2023-03-30T02:56:55;7.87;;;4.20;;
29500;SDS011;16450;50.288;10.966;2023-03-30T03:00:21;8.40;;;3.97;;
29500;SDS011;16450;50.288;10.966;2023-03-30T03:03:45;6.47;;;4.00;;
29500;SDS011;16450;50.288;10.966;2023-03-30T03:06:49;8.40;;;4.37;;
29500;SDS011;16450;50.288;10.966;2023-03-30T03:09:53;6.30;;;4.00;;
29500;SDS011;16450;50.288;10.966;2023-03-30T03:12:55;9.13;;;4.73;;
29500;SDS011;16450;50.288;10.966;2023-03-30T03:15:56;6.90;;;3.90;;
29500;SDS011;16450;50.288;10.966;2023-03-30T03:18:58;9.47;;;4.60;;
29500;SDS011;16450;50.288;10.966;2023-03-30T03:22:00;7.87;;;4.37;;
29500;SDS011;16450;50.288;10.966;2023-03-30T03:25:02;8.40;;;4.20;;
29500;SDS011;16450;50.288;10.966;2023-03-30T03:28:06;7.10;;;3.90;;
29500;SDS011;16450;50.288;10.966;2023-03-30T03:31:08;7.73;;;4.47;;
29500;SDS011;16450;50.288;10.966;2023-03-30T03:34:10;9.30;;;4.40;;
29500;SDS011;16450;50.288;10.966;2023-03-30T03:37:12;7.47;;;4.57;;
29500;SDS011;16450;50.288;10.966;2023-03-30T03:40:13;9.13;;;4.73;;
29500;SDS011;16450;50.288;10.966;2023-03-30T03:43:17;8.87;;;4.20;;
29500;SDS011;16450;50.288;10.966;2023-03-30T03:46:19;9.10;;;4.10;;
29500;SDS011;16450;50.288;10.966;2023-03-30T03:49:21;10.83;;;4.47;;
29500;SDS011;16450;50.288;10.966;2023-03-30T03:52:22;8.20;;;4.50;;
29500;SDS011;16450;50.288;10.966;2023-03-30T03:55:24;7.03;;;4.37;;
29500;SDS011;16450;50.288;10.966;2023-03-30T03:58:28;5.63;;;3.70;;
29500;SDS011;16450;50.288;10.966;2023-03-30T04:01:30;7.67;;;3.93;;
29500;SDS011;16450;50.288;10.966;2023-03-30T04:04:33;8.63;;;3.83;;
29500;SDS011;16450;50.288;10.966;2023-03-30T04:07:35;6.23;;;4.30;;
29500;SDS011;16450;50.288;10.966;2023-03-30T04:10:37;7.43;;;3.87;;
29500;SDS011;16450;50.288;10.966;2023-03-30T04:13:40;7.33;;;4.23;;
29500;SDS011;16450;50.288;10.966;2023-03-30T04:16:41;9.83;;;5.20;;
29500;SDS011;16450;50.288;10.966;2023-03-30T04:19:44;6.50;;;4.00;;
29500;SDS011;16450;50.288;10.966;2023-03-30T04:22:46;6.33;;;3.90;;
29500;SDS011;16450;50.288;10.966;2023-03-30T04:25:50;8.20;;;4.33;;
29500;SDS011;16450;50.288;10.966;2023-03-30T04:28:52;6.17;;;4.17;;
29500;SDS011;16450;50.288;10.966;2023-03-30T04:31:54;6.70;;;4.20;;
29500;SDS011;16450;50.288;10.966;2023-03-30T04:34:57;9.37;;;4.50;;
29500;SDS011;16450;50.288;10.966;2023-03-30T04:37:59;10.43;;;4.03;;
29500;SDS011;16450;50.288;10.966;2023-03-30T04:41:02;6.90;;;4.50;;
29500;SDS011;16450;50.288;10.966;2023-03-30T04:44:07;8.60;;;4.07;;
29500;SDS011;16450;50.288;10.966;2023-03-30T04:47:10;7.60;;;3.93;;
29500;SDS011;16450;50.288;10.966;2023-03-30T04:50:13;9.10;;;3.90;;
29500;SDS011;16450;50.288;10.966;2023-03-30T04:53:16;7.23;;;4.10;;
29500;SDS011;16450;50.288;10.966;2023-03-30T04:56:18;7.73;;;4.07;;
29500;SDS011;16450;50.288;10.966;2023-03-30T04:59:20;8.00;;;3.63;;
29500;SDS011;16450;50.288;10.966;2023-03-30T05:02:22;7.77;;;4.37;;
29500;SDS011;16450;50.288;10.966;2023-03-30T05:05:24;6.93;;;4.03;;
29500;SDS011;16450;50.288;10.966;2023-03-30T05:08:26;6.33;;;4.10;;
29500;SDS011;16450;50.288;10.966;2023-03-30T05:11:28;5.73;;;3.53;;
29500;SDS011;16450;50.288;10.966;2023-03-30T05:14:30;6.07;;;3.83;;
29500;SDS011;16450;50.288;10.966;2023-03-30T05:17:32;6.03;;;3.97;;
29500;SDS011;16450;50.288;10.966;2023-03-30T05:20:34;6.37;;;4.00;;
29500;SDS011;16450;50.288;10.966;2023-03-30T05:23:36;7.23;;;3.70;;
29500;SDS011;16450;50.288;10.966;2023-03-30T05:26:39;9.13;;;3.70;;
29500;SDS011;16450;50.288;10.966;2023-03-30T05:29:41;5.60;;;4.03;;
29500;SDS011;16450;50.288;10.966;2023-03-30T05:32:44;5.40;;;3.97;;
29500;SDS011;16450;50.288;10.966;2023-03-30T05:35:46;7.27;;;3.57;;
29500;SDS011;16450;50.288;10.966;2023-03-30T05:38:48;7.07;;;3.70;;
29500;SDS011;16450;50.288;10.966;2023-03-30T05:41:50;8.53;;;4.00;;
29500;SDS011;16450;50.288;10.966;2023-03-30T05:44:51;6.73;;;4.13;;
29500;SDS011;16450;50.288;10.966;2023-03-30T05:47:53;8.50;;;4.23;;
29500;SDS011;16450;50.288;10.966;2023-03-30T05:50:55;6.73;;;4.40;;
29500;SDS011;16450;50.288;10.966;2023-03-30T05:53:57;7.10;;;4.20;;
29500;SDS011;16450;50.288;10.966;2023-03-30T05:56:59;8.07;;;4.63;;
29500;SDS011;16450;50.288;10.966;2023-03-30T06:00:01;14.73;;;4.40;;
29500;SDS011;16450;50.288;10.966;2023-03-30T06:03:07;11.27;;;4.97;;
29500;SDS011;16450;50.288;10.966;2023-03-30T06:06:10;8.23;;;4.60;;
29500;SDS011;16450;50.288;10.966;2023-03-30T06:09:12;8.67;;;4.97;;
29500;SDS011;16450;50.288;10.966;2023-03-30T06:12:18;10.80;;;4.67;;
29500;SDS011;16450;50.288;10.966;2023-03-30T06:15:20;8.80;;;4.47;;
29500;SDS011;16450;50.288;10.966;2023-03-30T06:18:22;13.27;;;5.37;;
29500;SDS011;16450;50.288;10.966;2023-03-30T06:21:24;14.10;;;5.37;;
29500;SDS011;16450;50.288;10.966;2023-03-30T06:24:26;10.40;;;4.83;;
29500;SDS011;16450;50.288;10.966;2023-03-30T06:27:28;9.87;;;5.30;;
29500;SDS011;16450;50.288;10.966;2023-03-30T06:30:33;11.27;;;5.30;;
29500;SDS011;16450;50.288;10.966;2023-03-30T06:33:34;11.97;;;5.27;;
29500;SDS011;16450;50.288;10.966;2023-03-30T06:36:40;12.17;;;5.03;;
29500;SDS011;16450;50.288;10.966;2023-03-30T06:39:46;8.67;;;5.03;;
29500;SDS011;16450;50.288;10.966;2023-03-30T06:42:47;13.73;;;5.27;;
29500;SDS011;16450;50.288;10.966;2023-03-30T06:45:54;12.60;;;5.23;;
29500;SDS011;16450;50.288;10.966;2023-03-30T06:48:57;13.70;;;5.70;;
29500;SDS011;16450;50.288;10.966;2023-03-30T06:51:59;15.10;;;6.10;;
29500;SDS011;16450;50.288;10.966;2023-03-30T06:55:06;10.83;;;5.70;;
29500;SDS011;16450;50.288;10.966;2023-03-30T06:58:09;11.07;;;5.80;;
29500;SDS011;16450;50.288;10.966;2023-03-30T07:01:11;16.23;;;5.80;;
29500;SDS011;16450;50.288;10.966;2023-03-30T07:04:19;17.07;;;5.67;;
29500;SDS011;16450;50.288;10.966;2023-03-30T07:07:21;15.00;;;5.77;;
29500;SDS011;16450;50.288;10.966;2023-03-30T07:10:23;10.30;;;5.40;;
29500;SDS011;16450;50.288;10.966;2023-03-30T07:13:24;12.70;;;6.20;;
29500;SDS011;16450;50.288;10.966;2023-03-30T07:16:26;10.33;;;5.33;;
29500;SDS011;16450;50.288;10.966;2023-03-30T07:19:28;11.30;;;5.30;;
29500;SDS011;16450;50.288;10.966;2023-03-30T07:22:30;12.60;;;6.30;;
29500;SDS011;16450;50.288;10.966;2023-03-30T07:25:32;16.90;;;5.90;;
29500;SDS011;16450;50.288;10.966;2023-03-30T07:28:34;18.90;;;5.67;;
29500;SDS011;16450;50.288;10.966;2023-03-30T07:31:40;10.93;;;6.00;;
29500;SDS011;16450;50.288;10.966;2023-03-30T07:34:43;15.80;;;7.07;;
29500;SDS011;16450;50.288;10.966;2023-03-30T07:37:46;14.37;;;6.77;;
29500;SDS011;16450;50.288;10.966;2023-03-30T07:40:51;21.70;;;7.90;;
29500;SDS011;16450;50.288;10.966;2023-03-30T07:43:53;22.27;;;9.53;;
29500;SDS011;16450;50.288;10.966;2023-03-30T07:46:56;19.23;;;8.50;;
29500;SDS011;16450;50.288;10.966;2023-03-30T07:49:58;22.57;;;9.17;;
29500;SDS011;16450;50.288;10.966;2023-03-30T07:53:00;17.47;;;8.70;;
29500;SDS011;16450;50.288;10.966;2023-03-30T07:56:05;17.90;;;7.87;;
29500;SDS011;16450;50.288;10.966;2023-03-30T07:59:08;17.53;;;7.97;;
29500;SDS011;16450;50.288;10.966;2023-03-30T08:02:11;22.77;;;8.37;;
29500;SDS011;16450;50.288;10.966;2023-03-30T08:05:14;17.53;;;8.27;;
29500;SDS011;16450;50.288;10.966;2023-03-30T08:08:18;16.00;;;8.10;;
29500;SDS011;16450;50.288;10.966;2023-03-30T08:11:20;15.47;;;7.10;;
29500;SDS011;16450;50.288;10.966;2023-03-30T08:14:22;14.50;;;7.70;;
29500;SDS011;16450;50.288;10.966;2023-03-30T08:17:24;13.67;;;6.80;;
29500;SDS011;16450;50.288;10.966;2023-03-30T08:20:26;16.23;;;7.60;;
29500;SDS011;16450;50.288;10.966;2023-03-30T08:23:27;13.40;;;7.73;;
29500;SDS011;16450;50.288;10.966;2023-03-30T08:26:30;13.17;;;7.43;;
29500;SDS011;16450;50.288;10.966;2023-03-30T08:29:32;16.60;;;7.43;;
29500;SDS011;16450;50.288;10.966;2023-03-30T08:32:34;17.43;;;7.43;;
29500;SDS011;16450;50.288;10.966;2023-03-30T08:35:36;10.97;;;6.80;;
29500;SDS011;16450;50.288;10.966;2023-03-30T08:38:38;15.10;;;6.83;;
29500;SDS011;16450;50.288;10.966;2023-03-30T08:44:52;11.83;;;6.33;;
29500;SDS011;16450;50.288;10.966;2023-03-30T08:47:56;15.33;;;6.63;;
29500;SDS011;16450;50.288;10.966;2023-03-30T08:51:00;13.27;;;6.03;;
29500;SDS011;16450;50.288;10.966;2023-03-30T08:54:28;13.10;;;6.27;;
29500;SDS011;16450;50.288;10.966;2023-03-30T09:01:17;17.33;;;6.77;;
29500;SDS011;16450;50.288;10.966;2023-03-30T09:04:31;15.37;;;6.53;;
29500;SDS011;16450;50.288;10.966;2023-03-30T09:07:45;12.70;;;5.73;;
29500;SDS011;16450;50.288;10.966;2023-03-30T09:11:01;19.37;;;6.47;;
29500;SDS011;16450;50.288;10.966;2023-03-30T09:14:15;14.33;;;6.53;;
29500;SDS011;16450;50.288;10.966;2023-03-30T09:17:37;15.83;;;5.90;;
29500;SDS011;16450;50.288;10.966;2023-03-30T09:20:40;15.37;;;6.33;;
29500;SDS011;16450;50.288;10.966;2023-03-30T09:23:46;15.80;;;6.17;;
29500;SDS011;16450;50.288;10.966;2023-03-30T09:29:55;15.60;;;6.07;;
29500;SDS011;16450;50.288;10.966;2023-03-30T09:33:28;10.23;;;5.27;;
29500;SDS011;16450;50.288;10.966;2023-03-30T09:36:43;14.03;;;6.20;;
29500;SDS011;16450;50.288;10.966;2023-03-30T09:39:55;14.33;;;5.83;;
29500;SDS011;16450;50.288;10.966;2023-03-30T09:46:30;13.40;;;5.63;;
29500;SDS011;16450;50.288;10.966;2023-03-30T09:49:37;22.87;;;8.23;;
29500;SDS011;16450;50.288;10.966;2023-03-30T09:52:39;25.23;;;11.90;;
29500;SDS011;16450;50.288;10.966;2023-03-30T09:55:41;12.13;;;6.27;;
29500;SDS011;16450;50.288;10.966;2023-03-30T09:59:17;16.27;;;6.03;;
29500;SDS011;16450;50.288;10.966;2023-03-30T10:02:24;13.43;;;6.03;;
29500;SDS011;16450;50.288;10.966;2023-03-30T10:05:28;12.63;;;5.83;;
29500;SDS011;16450;50.288;10.966;2023-03-30T10:08:32;10.00;;;5.03;;
29500;SDS011;16450;50.288;10.966;2023-03-30T10:11:42;11.10;;;5.03;;
29500;SDS011;16450;50.288;10.966;2023-03-30T10:14:56;9.00;;;4.87;;
29500;SDS011;16450;50.288;10.966;2023-03-30T10:18:02;10.37;;;4.50;;
29500;SDS011;16450;50.288;10.966;2023-03-30T10:21:17;10.23;;;4.63;;
29500;SDS011;16450;50.288;10.966;2023-03-30T10:24:24;11.77;;;4.50;;
29500;SDS011;16450;50.288;10.966;2023-03-30T10:27:32;10.90;;;4.30;;
29500;SDS011;16450;50.288;10.966;2023-03-30T10:30:38;10.03;;;4.27;;
29500;SDS011;16450;50.288;10.966;2023-03-30T10:33:41;12.07;;;4.33;;
29500;SDS011;16450;50.288;10.966;2023-03-30T10:36:45;8.07;;;3.90;;
29500;SDS011;16450;50.288;10.966;2023-03-30T10:39:54;7.63;;;3.83;;
29500;SDS011;16450;50.288;10.966;2023-03-30T10:42:59;8.53;;;3.43;;
29500;SDS011;16450;50.288;10.966;2023-03-30T10:46:21;7.60;;;3.27;;
29500;SDS011;16450;50.288;10.966;2023-03-30T10:49:29;7.60;;;3.17;;
29500;SDS011;16450;50.288;10.966;2023-03-30T11:05:48;8.03;;;3.70;;
29500;SDS011;16450;50.288;10.966;2023-03-30T11:08:53;5.80;;;2.87;;
29500;SDS011;16450;50.288;10.966;2023-03-30T11:12:00;7.93;;;3.67;;
29500;SDS011;16450;50.288;10.966;2023-03-30T11:15:08;7.10;;;3.10;;
29500;SDS011;16450;50.288;10.966;2023-03-30T11:18:17;10.53;;;3.47;;
29500;SDS011;16450;50.288;10.966;2023-03-30T11:24:25;8.37;;;2.83;;
29500;SDS011;16450;50.288;10.966;2023-03-30T11:27:35;10.97;;;3.17;;
29500;SDS011;16450;50.288;10.966;2023-03-30T11:30:43;6.87;;;3.57;;
29500;SDS011;16450;50.288;10.966;2023-03-30T11:33:48;8.77;;;3.20;;
29500;SDS011;16450;50.288;10.966;2023-03-30T11:37:29;9.90;;;3.80;;
29500;SDS011;16450;50.288;10.966;2023-03-30T11:43:43;8.50;;;3.50;;
29500;SDS011;16450;50.288;10.966;2023-03-30T11:50:25;9.77;;;3.60;;
29500;SDS011;16450;50.288;10.966;2023-03-30T12:05:14;8.40;;;3.30;;
29500;SDS011;16450;50.288;10.966;2023-03-30T12:11:46;9.00;;;3.57;;
29500;SDS011;16450;50.288;10.966;2023-03-30T12:21:34;6.17;;;3.53;;
29500;SDS011;16450;50.288;10.966;2023-03-30T12:24:56;10.30;;;4.40;;
29500;SDS011;16450;50.288;10.966;2023-03-30T12:28:03;9.57;;;4.37;;
29500;SDS011;16450;50.288;10.966;2023-03-30T12:31:16;6.97;;;3.20;;
29500;SDS011;16450;50.288;10.966;2023-03-30T12:34:19;7.10;;;3.10;;
29500;SDS011;16450;50.288;10.966;2023-03-30T12:37:32;6.70;;;3.20;;
29500;SDS011;16450;50.288;10.966;2023-03-30T12:40:36;5.70;;;2.90;;
29500;SDS011;16450;50.288;10.966;2023-03-30T12:43:48;6.73;;;3.30;;
29500;SDS011;16450;50.288;10.966;2023-03-30T12:47:01;5.70;;;3.10;;
29500;SDS011;16450;50.288;10.966;2023-03-30T12:50:33;11.30;;;3.10;;
29500;SDS011;16450;50.288;10.966;2023-03-30T12:56:56;8.10;;;3.13;;
29500;SDS011;16450;50.288;10.966;2023-03-30T13:03:49;6.50;;;2.93;;
29500;SDS011;16450;50.288;10.966;2023-03-30T13:07:05;6.00;;;2.70;;
29500;SDS011;16450;50.288;10.966;2023-03-30T13:20:03;6.33;;;2.80;;
29500;SDS011;16450;50.288;10.966;2023-03-30T13:23:31;5.03;;;2.73;;
29500;SDS011;16450;50.288;10.966;2023-03-30T13:26:40;8.07;;;2.60;;
29500;SDS011;16450;50.288;10.966;2023-03-30T13:33:00;8.80;;;2.83;;
29500;SDS011;16450;50.288;10.966;2023-03-30T13:36:15;8.17;;;2.60;;
29500;SDS011;16450;50.288;10.966;2023-03-30T13:39:21;9.37;;;2.60;;
29500;SDS011;16450;50.288;10.966;2023-03-30T13:46:27;6.83;;;1.93;;
29500;SDS011;16450;50.288;10.966;2023-03-30T13:52:54;4.87;;;1.83;;
29500;SDS011;16450;50.288;10.966;2023-03-30T13:56:04;7.33;;;2.60;;
29500;SDS011;16450;50.288;10.966;2023-03-30T13:59:09;7.80;;;2.27;;
29500;SDS011;16450;50.288;10.966;2023-03-30T14:02:15;5.97;;;2.17;;
29500;SDS011;16450;50.288;10.966;2023-03-30T14:05:21;6.37;;;2.00;;
29500;SDS011;16450;50.288;10.966;2023-03-30T14:08:24;7.50;;;2.10;;
29500;SDS011;16450;50.288;10.966;2023-03-30T14:11:28;5.30;;;1.87;;
29500;SDS011;16450;50.288;10.966;2023-03-30T14:14:38;4.83;;;1.60;;
29500;SDS011;16450;50.288;10.966;2023-03-30T14:17:52;4.27;;;1.80;;
29500;SDS011;16450;50.288;10.966;2023-03-30T14:20:56;5.60;;;2.10;;
29500;SDS011;16450;50.288;10.966;2023-03-30T14:24:00;3.70;;;1.90;;
29500;SDS011;16450;50.288;10.966;2023-03-30T14:30:13;1.27;;;0.60;;
29500;SDS011;16450;50.288;10.966;2023-03-30T14:33:21;2.97;;;0.40;;
29500;SDS011;16450;50.288;10.966;2023-03-30T14:36:24;1.00;;;0.47;;
29500;SDS011;16450;50.288;10.966;2023-03-30T14:39:26;2.07;;;0.60;;
29500;SDS011;16450;50.288;10.966;2023-03-30T14:42:30;2.20;;;1.20;;
29500;SDS011;16450;50.288;10.966;2023-03-30T14:45:36;3.70;;;0.90;;
29500;SDS011;16450;50.288;10.966;2023-03-30T14:48:39;2.40;;;0.70;;
29500;SDS011;16450;50.288;10.966;2023-03-30T14:51:45;3.87;;;0.87;;
29500;SDS011;16450;50.288;10.966;2023-03-30T14:54:51;3.53;;;0.90;;
29500;SDS011;16450;50.288;10.966;2023-03-30T14:58:11;4.83;;;1.10;;
29500;SDS011;16450;50.288;10.966;2023-03-30T15:01:17;2.63;;;1.00;;
29500;SDS011;16450;50.288;10.966;2023-03-30T15:04:30;2.00;;;1.00;;
29500;SDS011;16450;50.288;10.966;2023-03-30T15:07:36;3.73;;;0.90;;
29500;SDS011;16450;50.288;10.966;2023-03-30T15:10:44;2.77;;;0.93;;
29500;SDS011;16450;50.288;10.966;2023-03-30T15:13:53;4.47;;;1.50;;
29500;SDS011;16450;50.288;10.966;2023-03-30T15:17:04;3.67;;;1.27;;
29500;SDS011;16450;50.288;10.966;2023-03-30T15:20:14;3.60;;;1.10;;
29500;SDS011;16450;50.288;10.966;2023-03-30T15:23:17;1.80;;;0.80;;
29500;SDS011;16450;50.288;10.966;2023-03-30T15:26:20;1.90;;;0.90;;
29500;SDS011;16450;50.288;10.966;2023-03-30T15:29:22;2.30;;;1.00;;
29500;SDS011;16450;50.288;10.966;2023-03-30T15:32:28;2.77;;;0.90;;
29500;SDS011;16450;50.288;10.966;2023-03-30T15:35:36;2.50;;;0.73;;
29500;SDS011;16450;50.288;10.966;2023-03-30T15:38:50;2.30;;;0.70;;
29500;SDS011;16450;50.288;10.966;2023-03-30T15:42:01;2.20;;;0.70;;
29500;SDS011;16450;50.288;10.966;2023-03-30T15:45:08;2.63;;;0.60;;
29500;SDS011;16450;50.288;10.966;2023-03-30T15:48:12;3.13;;;1.00;;
29500;SDS011;16450;50.288;10.966;2023-03-30T15:51:21;1.37;;;0.90;;
29500;SDS011;16450;50.288;10.966;2023-03-30T15:57:29;3.00;;;0.90;;
29500;SDS011;16450;50.288;10.966;2023-03-30T16:00:32;7.03;;;4.63;;
29500;SDS011;16450;50.288;10.966;2023-03-30T16:03:36;28.70;;;22.13;;
29500;SDS011;16450;50.288;10.966;2023-03-30T16:06:42;8.63;;;3.97;;
29500;SDS011;16450;50.288;10.966;2023-03-30T16:09:47;17.20;;;11.37;;
29500;SDS011;16450;50.288;10.966;2023-03-30T16:12:50;8.93;;;4.37;;
29500;SDS011;16450;50.288;10.966;2023-03-30T16:15:53;10.87;;;5.50;;
29500;SDS011;16450;50.288;10.966;2023-03-30T16:18:55;5.57;;;2.27;;
29500;SDS011;16450;50.288;10.966;2023-03-30T16:21:57;2.03;;;1.47;;
29500;SDS011;16450;50.288;10.966;2023-03-30T16:24:59;2.97;;;1.50;;
29500;SDS011;16450;50.288;10.966;2023-03-30T16:28:01;1.90;;;1.00;;
29500;SDS011;16450;50.288;10.966;2023-03-30T16:31:10;2.23;;;1.27;;
29500;SDS011;16450;50.288;10.966;2023-03-30T16:34:19;5.40;;;3.17;;
29500;SDS011;16450;50.288;10.966;2023-03-30T16:37:22;3.43;;;1.37;;
29500;SDS011;16450;50.288;10.966;2023-03-30T16:40:29;2.50;;;1.77;;
29500;SDS011;16450;50.288;10.966;2023-03-30T16:43:36;2.10;;;1.50;;
29500;SDS011;16450;50.288;10.966;2023-03-30T16:46:38;3.40;;;2.07;;
29500;SDS011;16450;50.288;10.966;2023-03-30T16:49:42;2.37;;;1.63;;
29500;SDS011;16450;50.288;10.966;2023-03-30T16:52:44;1.77;;;1.40;;
29500;SDS011;16450;50.288;10.966;2023-03-30T16:55:46;3.97;;;2.07;;
29500;SDS011;16450;50.288;10.966;2023-03-30T16:58:48;4.00;;;2.30;;
29500;SDS011;16450;50.288;10.966;2023-03-30T17:01:50;4.23;;;2.43;;
29500;SDS011;16450;50.288;10.966;2023-03-30T17:04:52;2.70;;;1.37;;
29500;SDS011;16450;50.288;10.966;2023-03-30T17:07:54;1.67;;;1.20;;
29500;SDS011;16450;50.288;10.966;2023-03-30T17:10:57;2.23;;;1.30;;
29500;SDS011;16450;50.288;10.966;2023-03-30T17:14:01;3.70;;;1.37;;
29500;SDS011;16450;50.288;10.966;2023-03-30T17:17:03;4.37;;;1.40;;
29500;SDS011;16450;50.288;10.966;2023-03-30T17:20:19;2.67;;;1.30;;
29500;SDS011;16450;50.288;10.966;2023-03-30T17:23:22;2.80;;;1.33;;
29500;SDS011;16450;50.288;10.966;2023-03-30T17:26:26;3.63;;;1.40;;
29500;SDS011;16450;50.288;10.966;2023-03-30T17:29:28;1.97;;;1.10;;
29500;SDS011;16450;50.288;10.966;2023-03-30T17:32:31;3.70;;;1.27;;
29500;SDS011;16450;50.288;10.966;2023-03-30T17:35:32;3.37;;;1.33;;
29500;SDS011;16450;50.288;10.966;2023-03-30T17:38:34;4.13;;;2.00;;
29500;SDS011;16450;50.288;10.966;2023-03-30T17:41:37;3.00;;;2.27;;
29500;SDS011;16450;50.288;10.966;2023-03-30T17:44:38;3.60;;;2.00;;
29500;SDS011;16450;50.288;10.966;2023-03-30T17:47:40;3.43;;;2.00;;
29500;SDS011;16450;50.288;10.966;2023-03-30T17:50:43;5.77;;;3.23;;
29500;SDS011;16450;50.288;10.966;2023-03-30T17:53:46;4.10;;;2.37;;
29500;SDS011;16450;50.288;10.966;2023-03-30T17:56:48;8.17;;;3.37;;
29500;SDS011;16450;50.288;10.966;2023-03-30T17:59:50;5.97;;;3.50;;
29500;SDS011;16450;50.288;10.966;2023-03-30T18:02:52;12.40;;;6.80;;
29500;SDS011;16450;50.288;10.966;2023-03-30T18:05:55;10.40;;;5.60;;
29500;SDS011;16450;50.288;10.966;2023-03-30T18:08:58;21.93;;;11.00;;
29500;SDS011;16450;50.288;10.966;2023-03-30T18:12:00;22.00;;;11.93;;
29500;SDS011;16450;50.288;10.966;2023-03-30T18:15:02;43.57;;;23.40;;
29500;SDS011;16450;50.288;10.966;2023-03-30T18:18:04;17.50;;;10.90;;
29500;SDS011;16450;50.288;10.966;2023-03-30T18:21:08;16.73;;;10.60;;
29500;SDS011;16450;50.288;10.966;2023-03-30T18:24:11;10.17;;;4.43;;
29500;SDS011;16450;50.288;10.966;2023-03-30T18:27:12;8.93;;;4.80;;
29500;SDS011;16450;50.288;10.966;2023-03-30T18:30:25;11.20;;;4.73;;
29500;SDS011;16450;50.288;10.966;2023-03-30T18:33:27;6.60;;;3.33;;
29500;SDS011;16450;50.288;10.966;2023-03-30T18:36:28;6.07;;;3.13;;
29500;SDS011;16450;50.288;10.966;2023-03-30T18:39:30;6.43;;;3.63;;
29500;SDS011;16450;50.288;10.966;2023-03-30T18:42:32;9.20;;;4.23;;
29500;SDS011;16450;50.288;10.966;2023-03-30T18:45:35;7.53;;;4.07;;
29500;SDS011;16450;50.288;10.966;2023-03-30T18:48:38;7.87;;;3.13;;
29500;SDS011;16450;50.288;10.966;2023-03-30T18:51:40;6.43;;;3.30;;
29500;SDS011;16450;50.288;10.966;2023-03-30T18:54:42;6.07;;;3.73;;
29500;SDS011;16450;50.288;10.966;2023-03-30T18:57:47;6.90;;;4.00;;
29500;SDS011;16450;50.288;10.966;2023-03-30T19:00:49;7.43;;;3.67;;
29500;SDS011;16450;50.288;10.966;2023-03-30T19:03:52;5.80;;;3.13;;
29500;SDS011;16450;50.288;10.966;2023-03-30T19:06:54;5.07;;;3.07;;
29500;SDS011;16450;50.288;10.966;2023-03-30T19:09:56;6.13;;;3.53;;
29500;SDS011;16450;50.288;10.966;2023-03-30T19:12:58;7.03;;;3.57;;
29500;SDS011;16450;50.288;10.966;2023-03-30T19:15:59;7.20;;;3.50;;
29500;SDS011;16450;50.288;10.966;2023-03-30T19:19:06;7.67;;;3.37;;
29500;SDS011;16450;50.288;10.966;2023-03-30T19:22:16;7.27;;;3.30;;
29500;SDS011;16450;50.288;10.966;2023-03-30T19:25:18;9.03;;;3.70;;
29500;SDS011;16450;50.288;10.966;2023-03-30T19:28:21;7.97;;;3.73;;
29500;SDS011;16450;50.288;10.966;2023-03-30T19:31:23;6.20;;;3.40;;
29500;SDS011;16450;50.288;10.966;2023-03-30T19:34:26;9.07;;;4.50;;
29500;SDS011;16450;50.288;10.966;2023-03-30T19:37:28;13.93;;;8.83;;
29500;SDS011;16450;50.288;10.966;2023-03-30T19:40:30;17.27;;;11.87;;
29500;SDS011;16450;50.288;10.966;2023-03-30T19:43:32;18.17;;;11.57;;
29500;SDS011;16450;50.288;10.966;2023-03-30T19:46:33;16.70;;;9.80;;
29500;SDS011;16450;50.288;10.966;2023-03-30T19:49:35;10.67;;;7.03;;
29500;SDS011;16450;50.288;10.966;2023-03-30T19:52:38;9.60;;;5.70;;
29500;SDS011;16450;50.288;10.966;2023-03-30T19:55:40;8.17;;;5.00;;
29500;SDS011;16450;50.288;10.966;2023-03-30T19:58:43;12.13;;;6.00;;
29500;SDS011;16450;50.288;10.966;2023-03-30T20:01:45;9.67;;;6.37;;
29500;SDS011;16450;50.288;10.966;2023-03-30T20:04:47;9.33;;;5.97;;
29500;SDS011;16450;50.288;10.966;2023-03-30T20:07:49;10.33;;;5.47;;
29500;SDS011;16450;50.288;10.966;2023-03-30T20:10:52;11.10;;;5.17;;
29500;SDS011;16450;50.288;10.966;2023-03-30T20:13:54;9.90;;;5.30;;
29500;SDS011;16450;50.288;10.966;2023-03-30T20:16:55;9.63;;;5.30;;
29500;SDS011;16450;50.288;10.966;2023-03-30T20:19:58;10.77;;;5.80;;
29500;SDS011;16450;50.288;10.966;2023-03-30T20:23:04;10.03;;;5.90;;
29500;SDS011;16450;50.288;10.966;2023-03-30T20:26:06;11.77;;;5.80;;
29500;SDS011;16450;50.288;10.966;2023-03-30T20:29:08;11.03;;;5.83;;